sensor_id;sensor_type;location;lat;lon;timestamp;pressure;altitude;pressure_sealevel;temperature;humidity
4326;BME280;58429;49.826;10.880;2022-10-04T00:00:46;99473;;;8.58;85.29
4326;BME280;58429;49.826;10.880;2022-10-04T00:01:47;99478;;;8.54;85.25
4326;BME280;58429;49.826;10.880;2022-10-04T00:02:46;99466;;;8.54;85.2
4326;BME280;58429;49.826;10.880;2022-10-04T00:03:48;99476;;;8.54;85.18
4326;BME280;58429;49.826;10.880;2022-10-04T00:04:46;99467;;;8.54;85.13
4326;BME280;58429;49.826;10.880;2022-10-04T00:05:47;99471;;;8.53;85.09
4326;BME280;58429;49.826;10.880;2022-10-04T00:06:47;99472;;;8.5;84.99
4326;BME280;58429;49.826;10.880;2022-10-04T00:07:47;99472;;;8.49;85.05
4326;BME280;58429;49.826;10.880;2022-10-04T00:08:47;99473;;;8.55;84.99
4326;BME280;58429;49.826;10.880;2022-10-04T00:09:48;99474;;;8.51;84.96
4326;BME280;58429;49.826;10.880;2022-10-04T00:10:46;99472;;;8.5;84.93
4326;BME280;58429;49.826;10.880;2022-10-04T00:11:46;99473;;;8.51;84.93
4326;BME280;58429;49.826;10.880;2022-10-04T00:12:47;99472;;;8.51;84.88
4326;BME280;58429;49.826;10.880;2022-10-04T00:13:47;99463;;;8.5;84.88
4326;BME280;58429;49.826;10.880;2022-10-04T00:14:46;99465;;;8.51;84.91
4326;BME280;58429;49.826;10.880;2022-10-04T00:15:46;99464;;;8.49;84.89
4326;BME280;58429;49.826;10.880;2022-10-04T00:16:46;99459;;;8.48;84.89
4326;BME280;58429;49.826;10.880;2022-10-04T00:17:58;99462;;;8.41;85.07
4326;BME280;58429;49.826;10.880;2022-10-04T00:18:46;99458;;;8.41;85
4326;BME280;58429;49.826;10.880;2022-10-04T00:19:47;99462;;;8.42;85
4326;BME280;58429;49.826;10.880;2022-10-04T00:20:55;99456;;;8.36;85.21
4326;BME280;58429;49.826;10.880;2022-10-04T00:22:20;99455;;;8.37;85.26
4326;BME280;58429;49.826;10.880;2022-10-04T00:23:23;99459;;;8.35;85.21
4326;BME280;58429;49.826;10.880;2022-10-04T00:23:46;99461;;;8.35;85.26
4326;BME280;58429;49.826;10.880;2022-10-04T00:25:19;99449;;;8.34;85.39
4326;BME280;58429;49.826;10.880;2022-10-04T00:25:46;99444;;;8.33;85.16
4326;BME280;58429;49.826;10.880;2022-10-04T00:28:47;99447;;;8.31;85.04
4326;BME280;58429;49.826;10.880;2022-10-04T00:28:51;99446;;;8.3;85.16
4326;BME280;58429;49.826;10.880;2022-10-04T00:29:49;99450;;;8.3;85.02
4326;BME280;58429;49.826;10.880;2022-10-04T00:31:05;99452;;;8.28;85.02
4326;BME280;58429;49.826;10.880;2022-10-04T00:32:47;99451;;;8.29;85.29
4326;BME280;58429;49.826;10.880;2022-10-04T00:32:58;99454;;;8.29;85.28
4326;BME280;58429;49.826;10.880;2022-10-04T00:33:48;99443;;;8.29;85.9
4326;BME280;58429;49.826;10.880;2022-10-04T00:34:47;99438;;;8.26;85.82
4326;BME280;58429;49.826;10.880;2022-10-04T00:35:47;99445;;;8.25;85.55
4326;BME280;58429;49.826;10.880;2022-10-04T00:36:49;99446;;;8.17;85.79
4326;BME280;58429;49.826;10.880;2022-10-04T00:37:55;99447;;;8.16;85.77
4326;BME280;58429;49.826;10.880;2022-10-04T00:38:59;99444;;;8.16;85.9
4326;BME280;58429;49.826;10.880;2022-10-04T00:39:46;99448;;;8.11;85.71
4326;BME280;58429;49.826;10.880;2022-10-04T00:40:48;99449;;;8.13;85.52
4326;BME280;58429;49.826;10.880;2022-10-04T00:41:52;99445;;;8.12;85.53
4326;BME280;58429;49.826;10.880;2022-10-04T00:42:49;99446;;;8.16;85.44
4326;BME280;58429;49.826;10.880;2022-10-04T00:43:46;99444;;;8.1;85.36
4326;BME280;58429;49.826;10.880;2022-10-04T00:44:48;99443;;;8.16;85.29
4326;BME280;58429;49.826;10.880;2022-10-04T00:45:48;99443;;;8.17;85.28
4326;BME280;58429;49.826;10.880;2022-10-04T00:46:46;99445;;;8.1;86.17
4326;BME280;58429;49.826;10.880;2022-10-04T00:48:47;99444;;;8.09;86.27
4326;BME280;58429;49.826;10.880;2022-10-04T00:48:51;99446;;;8.1;86.39
4326;BME280;58429;49.826;10.880;2022-10-04T00:49:47;99445;;;8.08;86.01
4326;BME280;58429;49.826;10.880;2022-10-04T00:50:47;99440;;;8.09;85.86
4326;BME280;58429;49.826;10.880;2022-10-04T00:51:47;99439;;;8.1;85.78
4326;BME280;58429;49.826;10.880;2022-10-04T00:52:49;99437;;;8.07;85.8
4326;BME280;58429;49.826;10.880;2022-10-04T00:53:49;99438;;;8.09;85.9
4326;BME280;58429;49.826;10.880;2022-10-04T00:54:47;99438;;;8.07;85.96
4326;BME280;58429;49.826;10.880;2022-10-04T00:55:48;99432;;;8.08;85.76
4326;BME280;58429;49.826;10.880;2022-10-04T00:56:47;99444;;;8.09;85.71
4326;BME280;58429;49.826;10.880;2022-10-04T00:57:46;99437;;;8.04;85.7
4326;BME280;58429;49.826;10.880;2022-10-04T00:58:59;99437;;;8.05;85.69
4326;BME280;58429;49.826;10.880;2022-10-04T00:59:47;99436;;;8.09;85.7
4326;BME280;58429;49.826;10.880;2022-10-04T01:00:47;99441;;;8.08;85.74
4326;BME280;58429;49.826;10.880;2022-10-04T01:01:48;99443;;;8.06;86
4326;BME280;58429;49.826;10.880;2022-10-04T01:02:49;99436;;;8.07;86.16
4326;BME280;58429;49.826;10.880;2022-10-04T01:03:47;99439;;;8.07;85.88
4326;BME280;58429;49.826;10.880;2022-10-04T01:04:47;99439;;;8.07;85.75
4326;BME280;58429;49.826;10.880;2022-10-04T01:05:48;99441;;;8.08;85.75
4326;BME280;58429;49.826;10.880;2022-10-04T01:06:47;99435;;;8.07;85.75
4326;BME280;58429;49.826;10.880;2022-10-04T01:07:47;99441;;;8.08;85.73
4326;BME280;58429;49.826;10.880;2022-10-04T01:08:47;99441;;;8.07;85.72
4326;BME280;58429;49.826;10.880;2022-10-04T01:09:47;99444;;;8.09;85.76
4326;BME280;58429;49.826;10.880;2022-10-04T01:10:48;99446;;;8.08;85.75
4326;BME280;58429;49.826;10.880;2022-10-04T01:11:49;99446;;;8.12;85.74
4326;BME280;58429;49.826;10.880;2022-10-04T01:12:48;99450;;;8.08;85.86
4326;BME280;58429;49.826;10.880;2022-10-04T01:13:48;99443;;;8.08;85.91
4326;BME280;58429;49.826;10.880;2022-10-04T01:14:49;99446;;;8.07;86.27
4326;BME280;58429;49.826;10.880;2022-10-04T01:15:49;99451;;;8.09;86.47
4326;BME280;58429;49.826;10.880;2022-10-04T01:16:46;99446;;;8.07;86.19
4326;BME280;58429;49.826;10.880;2022-10-04T01:18:26;99448;;;8.06;86.53
4326;BME280;58429;49.826;10.880;2022-10-04T01:18:47;99435;;;8.02;86.32
4326;BME280;58429;49.826;10.880;2022-10-04T01:19:48;99435;;;8.1;86.16
4326;BME280;58429;49.826;10.880;2022-10-04T01:20:49;99442;;;8.09;86.15
4326;BME280;58429;49.826;10.880;2022-10-04T01:21:47;99438;;;8.06;85.95
4326;BME280;58429;49.826;10.880;2022-10-04T01:22:47;99442;;;8.07;86.14
4326;BME280;58429;49.826;10.880;2022-10-04T01:23:47;99445;;;8.02;86.05
4326;BME280;58429;49.826;10.880;2022-10-04T01:24:47;99448;;;7.98;86.24
4326;BME280;58429;49.826;10.880;2022-10-04T01:25:47;99440;;;7.98;86.86
4326;BME280;58429;49.826;10.880;2022-10-04T01:26:47;99437;;;7.91;87.61
4326;BME280;58429;49.826;10.880;2022-10-04T01:27:47;99444;;;7.88;87.68
4326;BME280;58429;49.826;10.880;2022-10-04T01:28:47;99448;;;7.86;87.92
4326;BME280;58429;49.826;10.880;2022-10-04T01:29:47;99441;;;7.8;87.7
4326;BME280;58429;49.826;10.880;2022-10-04T01:30:47;99447;;;7.76;88.05
4326;BME280;58429;49.826;10.880;2022-10-04T01:31:47;99446;;;7.7;88.22
4326;BME280;58429;49.826;10.880;2022-10-04T01:32:47;99443;;;7.7;88.03
4326;BME280;58429;49.826;10.880;2022-10-04T01:33:47;99442;;;7.72;88.04
4326;BME280;58429;49.826;10.880;2022-10-04T01:34:47;99442;;;7.7;88.13
4326;BME280;58429;49.826;10.880;2022-10-04T01:35:47;99441;;;7.68;87.75
4326;BME280;58429;49.826;10.880;2022-10-04T01:36:47;99442;;;7.65;87.31
4326;BME280;58429;49.826;10.880;2022-10-04T01:37:47;99444;;;7.7;87.27
4326;BME280;58429;49.826;10.880;2022-10-04T01:38:47;99445;;;7.66;87.27
4326;BME280;58429;49.826;10.880;2022-10-04T01:39:47;99451;;;7.69;87.04
4326;BME280;58429;49.826;10.880;2022-10-04T01:40:48;99443;;;7.68;87.27
4326;BME280;58429;49.826;10.880;2022-10-04T01:41:47;99452;;;7.65;87.94
4326;BME280;58429;49.826;10.880;2022-10-04T01:42:47;99451;;;7.66;87.6
4326;BME280;58429;49.826;10.880;2022-10-04T01:43:48;99451;;;7.58;87.95
4326;BME280;58429;49.826;10.880;2022-10-04T01:44:48;99446;;;7.5;87.89
4326;BME280;58429;49.826;10.880;2022-10-04T01:45:47;99447;;;7.49;88.28
4326;BME280;58429;49.826;10.880;2022-10-04T01:46:47;99440;;;7.44;88.34
4326;BME280;58429;49.826;10.880;2022-10-04T01:47:47;99439;;;7.4;88.31
4326;BME280;58429;49.826;10.880;2022-10-04T01:48:47;99433;;;7.39;88.31
4326;BME280;58429;49.826;10.880;2022-10-04T01:49:47;99432;;;7.38;88.34
4326;BME280;58429;49.826;10.880;2022-10-04T01:50:49;99426;;;7.4;88.26
4326;BME280;58429;49.826;10.880;2022-10-04T01:51:52;99426;;;7.4;88.27
4326;BME280;58429;49.826;10.880;2022-10-04T01:52:47;99428;;;7.43;88.22
4326;BME280;58429;49.826;10.880;2022-10-04T01:53:48;99431;;;7.43;87.88
4326;BME280;58429;49.826;10.880;2022-10-04T01:54:47;99425;;;7.41;87.89
4326;BME280;58429;49.826;10.880;2022-10-04T01:55:48;99422;;;7.45;87.79
4326;BME280;58429;49.826;10.880;2022-10-04T01:56:48;99422;;;7.45;87.68
4326;BME280;58429;49.826;10.880;2022-10-04T01:57:47;99423;;;7.47;87.72
4326;BME280;58429;49.826;10.880;2022-10-04T01:58:47;99421;;;7.47;87.71
4326;BME280;58429;49.826;10.880;2022-10-04T01:59:48;99429;;;7.45;87.58
4326;BME280;58429;49.826;10.880;2022-10-04T02:00:48;99425;;;7.5;87.47
4326;BME280;58429;49.826;10.880;2022-10-04T02:01:48;99429;;;7.47;87.91
4326;BME280;58429;49.826;10.880;2022-10-04T02:02:48;99421;;;7.46;87.93
4326;BME280;58429;49.826;10.880;2022-10-04T02:03:49;99418;;;7.39;88.34
4326;BME280;58429;49.826;10.880;2022-10-04T02:04:49;99425;;;7.36;88.51
4326;BME280;58429;49.826;10.880;2022-10-04T02:05:49;99425;;;7.37;87.98
4326;BME280;58429;49.826;10.880;2022-10-04T02:06:47;99416;;;7.37;87.73
4326;BME280;58429;49.826;10.880;2022-10-04T02:07:47;99424;;;7.42;87.7
4326;BME280;58429;49.826;10.880;2022-10-04T02:08:48;99419;;;7.39;87.78
4326;BME280;58429;49.826;10.880;2022-10-04T02:09:47;99427;;;7.42;87.95
4326;BME280;58429;49.826;10.880;2022-10-04T02:10:47;99424;;;7.4;87.85
4326;BME280;58429;49.826;10.880;2022-10-04T02:11:47;99426;;;7.43;87.75
4326;BME280;58429;49.826;10.880;2022-10-04T02:12:47;99415;;;7.39;88.12
4326;BME280;58429;49.826;10.880;2022-10-04T02:13:47;99421;;;7.34;88.57
4326;BME280;58429;49.826;10.880;2022-10-04T02:14:47;99418;;;7.31;88.63
4326;BME280;58429;49.826;10.880;2022-10-04T02:15:47;99418;;;7.33;88.21
4326;BME280;58429;49.826;10.880;2022-10-04T02:16:47;99422;;;7.32;88.31
4326;BME280;58429;49.826;10.880;2022-10-04T02:17:47;99412;;;7.31;88.25
4326;BME280;58429;49.826;10.880;2022-10-04T02:18:47;99412;;;7.3;88.34
4326;BME280;58429;49.826;10.880;2022-10-04T02:19:47;99407;;;7.3;88.16
4326;BME280;58429;49.826;10.880;2022-10-04T02:20:47;99410;;;7.29;87.86
4326;BME280;58429;49.826;10.880;2022-10-04T02:21:47;99409;;;7.31;88.07
4326;BME280;58429;49.826;10.880;2022-10-04T02:22:48;99406;;;7.3;88.14
4326;BME280;58429;49.826;10.880;2022-10-04T02:23:47;99400;;;7.3;88.16
4326;BME280;58429;49.826;10.880;2022-10-04T02:24:47;99399;;;7.3;87.93
4326;BME280;58429;49.826;10.880;2022-10-04T02:25:47;99393;;;7.31;87.83
4326;BME280;58429;49.826;10.880;2022-10-04T02:26:49;99391;;;7.3;87.72
4326;BME280;58429;49.826;10.880;2022-10-04T02:27:50;99398;;;7.31;87.97
4326;BME280;58429;49.826;10.880;2022-10-04T02:28:47;99392;;;7.32;87.81
4326;BME280;58429;49.826;10.880;2022-10-04T02:29:47;99390;;;7.32;87.7
4326;BME280;58429;49.826;10.880;2022-10-04T02:30:47;99387;;;7.34;87.71
4326;BME280;58429;49.826;10.880;2022-10-04T02:31:47;99382;;;7.34;87.74
4326;BME280;58429;49.826;10.880;2022-10-04T02:32:47;99387;;;7.34;87.63
4326;BME280;58429;49.826;10.880;2022-10-04T02:33:48;99383;;;7.37;87.65
4326;BME280;58429;49.826;10.880;2022-10-04T02:34:47;99380;;;7.35;87.43
4326;BME280;58429;49.826;10.880;2022-10-04T02:35:47;99379;;;7.38;87.89
4326;BME280;58429;49.826;10.880;2022-10-04T02:36:47;99380;;;7.35;87.68
4326;BME280;58429;49.826;10.880;2022-10-04T02:37:47;99384;;;7.36;87.94
4326;BME280;58429;49.826;10.880;2022-10-04T02:38:48;99388;;;7.36;87.67
4326;BME280;58429;49.826;10.880;2022-10-04T02:39:47;99390;;;7.36;87.7
4326;BME280;58429;49.826;10.880;2022-10-04T02:40:48;99393;;;7.37;87.51
4326;BME280;58429;49.826;10.880;2022-10-04T02:41:48;99396;;;7.4;87.44
4326;BME280;58429;49.826;10.880;2022-10-04T02:42:49;99390;;;7.42;87.37
4326;BME280;58429;49.826;10.880;2022-10-04T02:43:48;99394;;;7.43;87.34
4326;BME280;58429;49.826;10.880;2022-10-04T02:44:48;99390;;;7.43;87.36
4326;BME280;58429;49.826;10.880;2022-10-04T02:45:48;99396;;;7.44;87.35
4326;BME280;58429;49.826;10.880;2022-10-04T02:46:47;99395;;;7.43;87.29
4326;BME280;58429;49.826;10.880;2022-10-04T02:47:48;99394;;;7.47;87.23
4326;BME280;58429;49.826;10.880;2022-10-04T02:48:48;99387;;;7.46;87.19
4326;BME280;58429;49.826;10.880;2022-10-04T02:49:47;99392;;;7.48;87.13
4326;BME280;58429;49.826;10.880;2022-10-04T02:50:47;99390;;;7.49;87.13
4326;BME280;58429;49.826;10.880;2022-10-04T02:51:48;99393;;;7.55;87.23
4326;BME280;58429;49.826;10.880;2022-10-04T02:52:47;99393;;;7.48;87.59
4326;BME280;58429;49.826;10.880;2022-10-04T02:53:49;99403;;;7.5;87.39
4326;BME280;58429;49.826;10.880;2022-10-04T02:54:48;99401;;;7.52;87.4
4326;BME280;58429;49.826;10.880;2022-10-04T02:55:47;99401;;;7.5;87.31
4326;BME280;58429;49.826;10.880;2022-10-04T02:56:49;99401;;;7.49;87.31
4326;BME280;58429;49.826;10.880;2022-10-04T02:57:47;99401;;;7.48;87.26
4326;BME280;58429;49.826;10.880;2022-10-04T02:58:47;99399;;;7.48;87.3
4326;BME280;58429;49.826;10.880;2022-10-04T02:59:47;99398;;;7.48;87.15
4326;BME280;58429;49.826;10.880;2022-10-04T03:00:48;99404;;;7.48;87.33
4326;BME280;58429;49.826;10.880;2022-10-04T03:01:48;99405;;;7.45;87.27
4326;BME280;58429;49.826;10.880;2022-10-04T03:03:21;99401;;;7.44;87.24
4326;BME280;58429;49.826;10.880;2022-10-04T03:03:47;99404;;;7.43;87.15
4326;BME280;58429;49.826;10.880;2022-10-04T03:04:47;99403;;;7.4;87
4326;BME280;58429;49.826;10.880;2022-10-04T03:05:52;99408;;;7.37;87.19
4326;BME280;58429;49.826;10.880;2022-10-04T03:06:47;99409;;;7.38;87.17
4326;BME280;58429;49.826;10.880;2022-10-04T03:07:47;99412;;;7.36;87.13
4326;BME280;58429;49.826;10.880;2022-10-04T03:08:49;99412;;;7.35;87.1
4326;BME280;58429;49.826;10.880;2022-10-04T03:09:47;99415;;;7.35;87.06
4326;BME280;58429;49.826;10.880;2022-10-04T03:10:47;99422;;;7.35;87.16
4326;BME280;58429;49.826;10.880;2022-10-04T03:11:47;99421;;;7.32;88.08
4326;BME280;58429;49.826;10.880;2022-10-04T03:12:48;99421;;;7.28;87.99
4326;BME280;58429;49.826;10.880;2022-10-04T03:13:48;99414;;;7.32;87.81
4326;BME280;58429;49.826;10.880;2022-10-04T03:14:47;99403;;;7.32;87.72
4326;BME280;58429;49.826;10.880;2022-10-04T03:15:47;99401;;;7.34;87.61
4326;BME280;58429;49.826;10.880;2022-10-04T03:16:48;99408;;;7.36;87.61
4326;BME280;58429;49.826;10.880;2022-10-04T03:17:47;99404;;;7.32;87.6
4326;BME280;58429;49.826;10.880;2022-10-04T03:18:47;99402;;;7.31;87.51
4326;BME280;58429;49.826;10.880;2022-10-04T03:19:47;99397;;;7.31;87.47
4326;BME280;58429;49.826;10.880;2022-10-04T03:20:47;99400;;;7.28;87.76
4326;BME280;58429;49.826;10.880;2022-10-04T03:21:48;99392;;;7.3;87.65
4326;BME280;58429;49.826;10.880;2022-10-04T03:22:47;99397;;;7.28;87.89
4326;BME280;58429;49.826;10.880;2022-10-04T03:23:47;99393;;;7.28;88.12
4326;BME280;58429;49.826;10.880;2022-10-04T03:24:48;99397;;;7.29;88.25
4326;BME280;58429;49.826;10.880;2022-10-04T03:25:49;99392;;;7.27;88.29
4326;BME280;58429;49.826;10.880;2022-10-04T03:26:48;99399;;;7.29;88.28
4326;BME280;58429;49.826;10.880;2022-10-04T03:27:47;99388;;;7.28;88.03
4326;BME280;58429;49.826;10.880;2022-10-04T03:28:47;99384;;;7.28;87.96
4326;BME280;58429;49.826;10.880;2022-10-04T03:29:47;99383;;;7.29;87.82
4326;BME280;58429;49.826;10.880;2022-10-04T03:30:47;99382;;;7.3;87.78
4326;BME280;58429;49.826;10.880;2022-10-04T03:31:47;99383;;;7.31;87.78
4326;BME280;58429;49.826;10.880;2022-10-04T03:32:47;99390;;;7.3;87.66
4326;BME280;58429;49.826;10.880;2022-10-04T03:33:47;99385;;;7.34;87.68
4326;BME280;58429;49.826;10.880;2022-10-04T03:34:49;99389;;;7.33;87.6
4326;BME280;58429;49.826;10.880;2022-10-04T03:35:49;99383;;;7.34;87.71
4326;BME280;58429;49.826;10.880;2022-10-04T03:36:47;99376;;;7.34;87.62
4326;BME280;58429;49.826;10.880;2022-10-04T03:37:47;99377;;;7.35;87.61
4326;BME280;58429;49.826;10.880;2022-10-04T03:38:47;99375;;;7.35;87.57
4326;BME280;58429;49.826;10.880;2022-10-04T03:39:48;99380;;;7.38;87.53
4326;BME280;58429;49.826;10.880;2022-10-04T03:40:49;99381;;;7.36;87.63
4326;BME280;58429;49.826;10.880;2022-10-04T03:41:47;99382;;;7.36;87.66
4326;BME280;58429;49.826;10.880;2022-10-04T03:42:47;99384;;;7.35;87.72
4326;BME280;58429;49.826;10.880;2022-10-04T03:43:47;99380;;;7.36;87.68
4326;BME280;58429;49.826;10.880;2022-10-04T03:44:48;99373;;;7.35;87.6
4326;BME280;58429;49.826;10.880;2022-10-04T03:45:47;99368;;;7.39;87.65
4326;BME280;58429;49.826;10.880;2022-10-04T03:46:47;99372;;;7.38;87.69
4326;BME280;58429;49.826;10.880;2022-10-04T03:47:48;99373;;;7.35;87.76
4326;BME280;58429;49.826;10.880;2022-10-04T03:48:48;99378;;;7.37;87.74
4326;BME280;58429;49.826;10.880;2022-10-04T03:49:47;99375;;;7.37;87.71
4326;BME280;58429;49.826;10.880;2022-10-04T03:50:47;99385;;;7.38;87.74
4326;BME280;58429;49.826;10.880;2022-10-04T03:51:48;99380;;;7.35;87.78
4326;BME280;58429;49.826;10.880;2022-10-04T03:52:49;99381;;;7.36;87.66
4326;BME280;58429;49.826;10.880;2022-10-04T03:53:48;99380;;;7.36;87.59
4326;BME280;58429;49.826;10.880;2022-10-04T03:54:47;99371;;;7.34;87.58
4326;BME280;58429;49.826;10.880;2022-10-04T03:55:47;99367;;;7.31;87.75
4326;BME280;58429;49.826;10.880;2022-10-04T03:56:47;99361;;;7.3;87.8
4326;BME280;58429;49.826;10.880;2022-10-04T03:57:47;99357;;;7.3;87.78
4326;BME280;58429;49.826;10.880;2022-10-04T03:58:48;99356;;;7.27;87.71
4326;BME280;58429;49.826;10.880;2022-10-04T03:59:47;99355;;;7.28;87.84
4326;BME280;58429;49.826;10.880;2022-10-04T04:00:52;99354;;;7.21;87.84
4326;BME280;58429;49.826;10.880;2022-10-04T04:01:47;99355;;;7.21;87.94
4326;BME280;58429;49.826;10.880;2022-10-04T04:02:48;99356;;;7.21;87.92
4326;BME280;58429;49.826;10.880;2022-10-04T04:03:53;99352;;;7.16;88.2
4326;BME280;58429;49.826;10.880;2022-10-04T04:04:49;99355;;;7.16;88.02
4326;BME280;58429;49.826;10.880;2022-10-04T04:05:48;99358;;;7.21;87.98
4326;BME280;58429;49.826;10.880;2022-10-04T04:06:50;99358;;;7.22;87.91
4326;BME280;58429;49.826;10.880;2022-10-04T04:07:49;99363;;;7.23;87.83
4326;BME280;58429;49.826;10.880;2022-10-04T04:08:48;99361;;;7.24;87.96
4326;BME280;58429;49.826;10.880;2022-10-04T04:09:49;99367;;;7.23;88.07
4326;BME280;58429;49.826;10.880;2022-10-04T04:10:49;99363;;;7.2;88.14
4326;BME280;58429;49.826;10.880;2022-10-04T04:11:48;99365;;;7.23;87.93
4326;BME280;58429;49.826;10.880;2022-10-04T04:12:50;99364;;;7.26;87.91
4326;BME280;58429;49.826;10.880;2022-10-04T04:13:49;99360;;;7.28;87.88
4326;BME280;58429;49.826;10.880;2022-10-04T04:14:48;99352;;;7.23;87.97
4326;BME280;58429;49.826;10.880;2022-10-04T04:15:47;99355;;;7.2;87.85
4326;BME280;58429;49.826;10.880;2022-10-04T04:16:47;99358;;;7.2;87.82
4326;BME280;58429;49.826;10.880;2022-10-04T04:17:48;99351;;;7.16;87.85
4326;BME280;58429;49.826;10.880;2022-10-04T04:18:47;99357;;;7.16;87.81
4326;BME280;58429;49.826;10.880;2022-10-04T04:19:47;99361;;;7.18;87.78
4326;BME280;58429;49.826;10.880;2022-10-04T04:20:47;99359;;;7.23;87.75
4326;BME280;58429;49.826;10.880;2022-10-04T04:21:47;99361;;;7.27;87.72
4326;BME280;58429;49.826;10.880;2022-10-04T04:22:51;99367;;;7.3;87.71
4326;BME280;58429;49.826;10.880;2022-10-04T04:23:48;99375;;;7.31;87.72
4326;BME280;58429;49.826;10.880;2022-10-04T04:24:47;99375;;;7.29;87.7
4326;BME280;58429;49.826;10.880;2022-10-04T04:25:48;99377;;;7.32;87.68
4326;BME280;58429;49.826;10.880;2022-10-04T04:26:49;99384;;;7.35;87.69
4326;BME280;58429;49.826;10.880;2022-10-04T04:27:47;99390;;;7.35;87.64
4326;BME280;58429;49.826;10.880;2022-10-04T04:28:48;99383;;;7.34;87.6
4326;BME280;58429;49.826;10.880;2022-10-04T04:29:49;99387;;;7.35;87.59
4326;BME280;58429;49.826;10.880;2022-10-04T04:30:48;99393;;;7.36;87.54
4326;BME280;58429;49.826;10.880;2022-10-04T04:31:49;99397;;;7.39;87.5
4326;BME280;58429;49.826;10.880;2022-10-04T04:32:48;99393;;;7.36;87.46
4326;BME280;58429;49.826;10.880;2022-10-04T04:33:48;99393;;;7.36;87.42
4326;BME280;58429;49.826;10.880;2022-10-04T04:34:49;99393;;;7.37;87.41
4326;BME280;58429;49.826;10.880;2022-10-04T04:35:48;99388;;;7.38;87.36
4326;BME280;58429;49.826;10.880;2022-10-04T04:36:47;99385;;;7.38;87.34
4326;BME280;58429;49.826;10.880;2022-10-04T04:38:00;99385;;;7.35;87.3
4326;BME280;58429;49.826;10.880;2022-10-04T04:38:47;99383;;;7.34;87.39
4326;BME280;58429;49.826;10.880;2022-10-04T04:39:47;99378;;;7.34;87.38
4326;BME280;58429;49.826;10.880;2022-10-04T04:40:48;99375;;;7.35;87.36
4326;BME280;58429;49.826;10.880;2022-10-04T04:41:47;99374;;;7.34;87.35
4326;BME280;58429;49.826;10.880;2022-10-04T04:42:48;99378;;;7.36;87.39
4326;BME280;58429;49.826;10.880;2022-10-04T04:43:47;99373;;;7.35;87.35
4326;BME280;58429;49.826;10.880;2022-10-04T04:44:48;99373;;;7.34;87.32
4326;BME280;58429;49.826;10.880;2022-10-04T04:45:48;99376;;;7.36;87.31
4326;BME280;58429;49.826;10.880;2022-10-04T04:46:47;99372;;;7.35;87.31
4326;BME280;58429;49.826;10.880;2022-10-04T04:47:48;99371;;;7.35;87.33
4326;BME280;58429;49.826;10.880;2022-10-04T04:48:48;99372;;;7.34;87.29
4326;BME280;58429;49.826;10.880;2022-10-04T04:49:47;99366;;;7.32;87.4
4326;BME280;58429;49.826;10.880;2022-10-04T04:50:48;99372;;;7.31;87.46
4326;BME280;58429;49.826;10.880;2022-10-04T04:51:48;99368;;;7.25;87.55
4326;BME280;58429;49.826;10.880;2022-10-04T04:52:50;99360;;;7.23;87.54
4326;BME280;58429;49.826;10.880;2022-10-04T04:53:48;99364;;;7.26;87.56
4326;BME280;58429;49.826;10.880;2022-10-04T04:54:47;99362;;;7.27;87.55
4326;BME280;58429;49.826;10.880;2022-10-04T04:55:48;99367;;;7.27;87.54
4326;BME280;58429;49.826;10.880;2022-10-04T04:56:48;99363;;;7.25;87.52
4326;BME280;58429;49.826;10.880;2022-10-04T04:57:48;99364;;;7.25;87.53
4326;BME280;58429;49.826;10.880;2022-10-04T04:58:48;99361;;;7.29;87.55
4326;BME280;58429;49.826;10.880;2022-10-04T04:59:48;99361;;;7.24;87.57
4326;BME280;58429;49.826;10.880;2022-10-04T05:00:49;99357;;;7.26;87.55
4326;BME280;58429;49.826;10.880;2022-10-04T05:01:47;99351;;;7.31;87.54
4326;BME280;58429;49.826;10.880;2022-10-04T05:02:49;99362;;;7.28;87.56
4326;BME280;58429;49.826;10.880;2022-10-04T05:03:58;99364;;;7.29;87.59
4326;BME280;58429;49.826;10.880;2022-10-04T05:04:47;99365;;;7.31;87.61
4326;BME280;58429;49.826;10.880;2022-10-04T05:05:47;99363;;;7.3;87.58
4326;BME280;58429;49.826;10.880;2022-10-04T05:06:57;99368;;;7.3;87.55
4326;BME280;58429;49.826;10.880;2022-10-04T05:07:48;99368;;;7.29;87.53
4326;BME280;58429;49.826;10.880;2022-10-04T05:08:48;99363;;;7.31;87.62
4326;BME280;58429;49.826;10.880;2022-10-04T05:09:48;99355;;;7.31;87.58
4326;BME280;58429;49.826;10.880;2022-10-04T05:10:48;99361;;;7.3;87.57
4326;BME280;58429;49.826;10.880;2022-10-04T05:11:47;99360;;;7.31;87.59
4326;BME280;58429;49.826;10.880;2022-10-04T05:12:47;99367;;;7.32;87.59
4326;BME280;58429;49.826;10.880;2022-10-04T05:13:49;99367;;;7.27;87.61
4326;BME280;58429;49.826;10.880;2022-10-04T05:14:48;99374;;;7.32;87.64
4326;BME280;58429;49.826;10.880;2022-10-04T05:15:48;99373;;;7.34;87.62
4326;BME280;58429;49.826;10.880;2022-10-04T05:16:48;99375;;;7.35;87.61
4326;BME280;58429;49.826;10.880;2022-10-04T05:17:47;99378;;;7.34;87.59
4326;BME280;58429;49.826;10.880;2022-10-04T05:18:48;99377;;;7.35;87.58
4326;BME280;58429;49.826;10.880;2022-10-04T05:19:48;99381;;;7.36;87.62
4326;BME280;58429;49.826;10.880;2022-10-04T05:20:48;99379;;;7.35;87.59
4326;BME280;58429;49.826;10.880;2022-10-04T05:21:48;99369;;;7.35;87.59
4326;BME280;58429;49.826;10.880;2022-10-04T05:22:48;99371;;;7.35;87.54
4326;BME280;58429;49.826;10.880;2022-10-04T05:23:47;99374;;;7.35;87.57
4326;BME280;58429;49.826;10.880;2022-10-04T05:24:49;99368;;;7.36;87.57
4326;BME280;58429;49.826;10.880;2022-10-04T05:25:48;99368;;;7.35;87.51
4326;BME280;58429;49.826;10.880;2022-10-04T05:26:48;99368;;;7.36;87.53
4326;BME280;58429;49.826;10.880;2022-10-04T05:27:48;99363;;;7.35;87.53
4326;BME280;58429;49.826;10.880;2022-10-04T05:28:48;99368;;;7.37;87.55
4326;BME280;58429;49.826;10.880;2022-10-04T05:29:51;99360;;;7.37;87.54
4326;BME280;58429;49.826;10.880;2022-10-04T05:30:51;99359;;;7.42;87.54
4326;BME280;58429;49.826;10.880;2022-10-04T05:31:48;99367;;;7.38;87.55
4326;BME280;58429;49.826;10.880;2022-10-04T05:32:49;99365;;;7.39;87.57
4326;BME280;58429;49.826;10.880;2022-10-04T05:33:48;99367;;;7.36;87.53
4326;BME280;58429;49.826;10.880;2022-10-04T05:34:48;99372;;;7.45;87.55
4326;BME280;58429;49.826;10.880;2022-10-04T05:36:01;99372;;;7.4;87.54
4326;BME280;58429;49.826;10.880;2022-10-04T05:36:54;99372;;;7.43;87.58
4326;BME280;58429;49.826;10.880;2022-10-04T05:37:50;99378;;;7.42;87.6